createdAt,value
2022-11-09T00:01:44.183Z,98390.91
2022-11-09T00:04:13.145Z,98386.72
2022-11-09T00:06:42.154Z,98391.25
2022-11-09T00:09:11.083Z,98387.56
2022-11-09T00:11:39.854Z,98396.44
2022-11-09T00:14:15.561Z,98390.06
2022-11-09T00:16:44.547Z,98395.94
2022-11-09T00:19:14.150Z,98390.91
2022-11-09T00:21:43.070Z,98385.53
2022-11-09T00:24:12.408Z,98393.59
2022-11-09T00:26:41.320Z,98385.69
2022-11-09T00:29:11.580Z,98385.53
2022-11-09T00:31:40.403Z,98381.16
2022-11-09T00:34:09.403Z,98372.25
2022-11-09T00:36:38.416Z,98381.34
2022-11-09T00:39:07.209Z,98375.09
2022-11-09T00:41:36.096Z,98380.47
2022-11-09T00:44:05.123Z,98382.34
2022-11-09T00:46:35.745Z,98381.16
2022-11-09T00:49:04.953Z,98367.91
2022-11-09T00:51:33.740Z,98375.97
2022-11-09T00:54:02.793Z,98375.97
2022-11-09T00:56:31.601Z,98374.28
2022-11-09T00:59:00.399Z,98374.28
2022-11-09T01:01:29.357Z,98386.88
2022-11-09T01:03:59.603Z,98376.13
2022-11-09T01:06:28.567Z,98391.25
2022-11-09T01:08:57.409Z,98385.03
2022-11-09T01:11:26.259Z,98376.28
2022-11-09T01:13:55.114Z,98385.84
2022-11-09T01:16:24.382Z,98378.16
2022-11-09T01:18:54.981Z,98376.13
2022-11-09T01:21:25.322Z,98364.56
2022-11-09T01:23:54.221Z,98373.44
2022-11-09T01:26:23.381Z,98374.28
2022-11-09T01:28:52.320Z,98368.06
2022-11-09T01:31:21.754Z,98363.53
2022-11-09T01:33:50.715Z,98362.03
2022-11-09T01:36:20.552Z,98366.22
2022-11-09T01:38:50.942Z,98360.16
2022-11-09T01:41:21.418Z,98353.97
2022-11-09T01:44:05.434Z,98349.25
2022-11-09T01:46:37.150Z,98354.63
2022-11-09T01:49:08.223Z,98349.41
2022-11-09T01:51:38.897Z,98338.66
2022-11-09T01:54:16.435Z,98341.53
2022-11-09T01:56:45.571Z,98338.66
2022-11-09T01:59:16.673Z,98338.84
2022-11-09T02:01:45.698Z,98336.34
2022-11-09T02:04:15.144Z,98338.66
2022-11-09T02:06:44.044Z,98340.72
2022-11-09T02:09:16.883Z,98342.38
2022-11-09T02:11:45.677Z,98342.38
2022-11-09T02:14:14.539Z,98330.78
2022-11-09T02:16:43.351Z,98336.16
2022-11-09T02:19:12.244Z,98335.13
2022-11-09T02:21:42.422Z,98329.97
2022-11-09T02:24:11.268Z,98329.97
2022-11-09T02:26:42.158Z,98329.13
2022-11-09T02:29:11.514Z,98335.50
2022-11-09T02:31:42.697Z,98339.03
2022-11-09T02:34:12.605Z,98331.63
2022-11-09T02:36:43.671Z,98329.13
2022-11-09T02:39:12.761Z,98322.06
2022-11-09T02:41:45.434Z,98338.19
2022-11-09T02:44:14.417Z,98337.34
2022-11-09T02:46:43.403Z,98337.34
2022-11-09T02:49:12.266Z,98332.81
2022-11-09T02:51:42.575Z,98334.66
2022-11-09T02:54:11.354Z,98334.84
2022-11-09T02:56:40.518Z,98337.34
2022-11-09T02:59:09.303Z,98344.59
2022-11-09T03:01:38.269Z,98331.16
2022-11-09T03:04:07.315Z,98334.66
2022-11-09T03:06:36.383Z,98336.53
2022-11-09T03:09:07.862Z,98342.72
2022-11-09T03:11:36.878Z,98338.56
2022-11-09T03:14:05.839Z,98339.38
2022-11-09T03:16:34.621Z,98332.16
2022-11-09T03:19:03.407Z,98334.00
2022-11-09T03:21:32.318Z,98343.75
2022-11-09T03:24:01.049Z,98344.75
2022-11-09T03:26:31.290Z,98335.88
2022-11-09T03:29:00.109Z,98336.88
2022-11-09T03:31:28.989Z,98334.19
2022-11-09T03:33:57.913Z,98339.56
2022-11-09T03:36:26.799Z,98339.38
2022-11-09T03:38:55.513Z,98332.34
2022-11-09T03:41:24.477Z,98327.78
2022-11-09T03:43:54.583Z,98329.47
2022-11-09T03:46:23.453Z,98324.94
2022-11-09T03:48:52.275Z,98326.13
2022-11-09T03:51:21.186Z,98318.06
2022-11-09T03:53:50.081Z,98312.69
2022-11-09T03:56:18.871Z,98309.16
2022-11-09T03:58:47.705Z,98315.38
2022-11-09T04:01:17.905Z,98313.53
2022-11-09T04:03:46.840Z,98302.94
2022-11-09T04:06:15.630Z,98303.97
2022-11-09T04:08:49.921Z,98304.63
2022-11-09T04:11:20.086Z,98293.22
2022-11-09T04:13:49.051Z,98302.09
2022-11-09T04:16:19.798Z,98301.94
2022-11-09T04:18:48.675Z,98303.75
2022-11-09T04:21:22.788Z,98300.25
2022-11-09T04:23:52.928Z,98303.75
2022-11-09T04:26:21.722Z,98303.75
2022-11-09T04:28:50.739Z,98297.56
2022-11-09T04:31:24.274Z,98297.56
2022-11-09T04:33:56.789Z,98301.28
2022-11-09T04:36:25.572Z,98299.59
2022-11-09T04:38:54.626Z,98300.44
2022-11-09T04:41:23.509Z,98301.28
2022-11-09T04:43:52.471Z,98309.34
2022-11-09T04:46:22.626Z,98309.50
2022-11-09T04:48:51.727Z,98311.00
2022-11-09T04:51:20.486Z,98304.13
2022-11-09T04:53:49.380Z,98303.13
2022-11-09T04:56:18.185Z,98302.28
2022-11-09T04:58:47.138Z,98303.31
2022-11-09T05:01:17.308Z,98308.69
2022-11-09T05:03:47.691Z,98306.81
2022-11-09T05:06:34.756Z,98301.28
2022-11-09T05:09:05.228Z,98301.28
2022-11-09T05:11:34.247Z,98305.81
2022-11-09T05:14:03.052Z,98296.91
2022-11-09T05:16:32.057Z,98296.91
2022-11-09T05:19:02.311Z,98308.50
2022-11-09T05:21:31.070Z,98304.31
2022-11-09T05:23:59.002Z,98302.63
2022-11-09T05:26:29.185Z,98302.28
2022-11-09T05:28:59.210Z,98296.06
2022-11-09T05:31:28.159Z,98306.19
2022-11-09T05:33:57.190Z,98306.00
2022-11-09T05:36:28.034Z,98307.00
2022-11-09T05:38:57.045Z,98309.50
2022-11-09T05:41:25.802Z,98314.72
2022-11-09T05:43:54.681Z,98314.06
2022-11-09T05:46:23.541Z,98312.38
2022-11-09T05:48:52.382Z,98309.72
2022-11-09T05:51:21.835Z,98303.31
2022-11-09T05:53:52.051Z,98307.84
2022-11-09T05:56:20.905Z,98320.47
2022-11-09T05:58:49.887Z,98319.63
2022-11-09T06:01:19.861Z,98322.31
2022-11-09T06:03:48.864Z,98322.59
2022-11-09T06:06:17.978Z,98320.56
2022-11-09T06:08:47.048Z,98315.03
2022-11-09T06:11:23.529Z,98316.69
2022-11-09T06:13:53.549Z,98321.22
2022-11-09T06:16:22.361Z,98326.78
2022-11-09T06:18:51.226Z,98325.84
2022-11-09T06:21:20.007Z,98323.44
2022-11-09T06:23:48.904Z,98325.41
2022-11-09T06:26:19.091Z,98331.75
2022-11-09T06:28:47.897Z,98333.78
2022-11-09T06:31:18.263Z,98324.69
2022-11-09T06:33:48.168Z,98333.41
2022-11-09T06:36:16.892Z,98339.25
2022-11-09T06:38:45.332Z,98337.59
2022-11-09T06:41:14.092Z,98338.44
2022-11-09T06:43:44.013Z,98340.47
2022-11-09T06:46:17.394Z,98340.47
2022-11-09T06:48:49.394Z,98336.09
2022-11-09T06:51:21.031Z,98339.47
2022-11-09T06:53:49.754Z,98336.41
2022-11-09T06:56:18.680Z,98333.88
2022-11-09T06:58:49.168Z,98333.06
2022-11-09T07:01:19.225Z,98329.34
2022-11-09T07:03:48.145Z,98338.28
2022-11-09T07:06:17.214Z,98327.50
2022-11-09T07:08:46.018Z,98332.69
2022-11-09T07:11:16.955Z,98330.00
2022-11-09T07:13:45.737Z,98336.03
2022-11-09T07:16:17.421Z,98332.16
2022-11-09T07:18:46.421Z,98332.16
2022-11-09T07:21:15.444Z,98330.31
2022-11-09T07:23:44.387Z,98329.31
2022-11-09T07:26:13.359Z,98323.06
2022-11-09T07:28:42.989Z,98316.84
2022-11-09T07:31:11.848Z,98319.38
2022-11-09T07:33:41.993Z,98330.78
2022-11-09T07:36:10.886Z,98330.13
2022-11-09T07:38:39.647Z,98321.25
2022-11-09T07:41:09.180Z,98326.63
2022-11-09T07:43:38.050Z,98325.75
2022-11-09T07:46:07.558Z,98322.91
2022-11-09T07:48:36.300Z,98319.38
2022-11-09T07:51:08.317Z,98312.16
2022-11-09T07:53:37.850Z,98316.50
2022-11-09T07:56:07.210Z,98321.88
2022-11-09T07:58:38.171Z,98317.53
2022-11-09T08:01:09.466Z,98307.59
2022-11-09T08:03:38.456Z,98313.16
2022-11-09T08:06:09.676Z,98312.97
2022-11-09T08:08:39.799Z,98315.50
2022-11-09T08:11:08.646Z,98310.13
2022-11-09T08:13:37.375Z,98312.81
2022-11-09T08:16:06.685Z,98308.41
2022-11-09T08:18:35.440Z,98317.16
2022-11-09T08:21:04.532Z,98322.53
2022-11-09T08:23:34.796Z,98323.38
2022-11-09T08:26:04.493Z,98316.13
2022-11-09T08:28:33.628Z,98325.22
2022-11-09T08:31:03.133Z,98317.81
2022-11-09T08:33:34.547Z,98313.63
2022-11-09T08:36:03.468Z,98308.25
2022-11-09T08:38:34.052Z,98308.06
2022-11-09T08:41:02.849Z,98307.22
2022-11-09T08:43:31.648Z,98305.38
2022-11-09T08:46:00.452Z,98307.22
2022-11-09T08:48:29.422Z,98300.00
2022-11-09T08:50:59.095Z,98307.06
2022-11-09T08:53:28.984Z,98307.06
2022-11-09T08:55:59.475Z,98307.06
2022-11-09T08:58:28.457Z,98301.69
2022-11-09T09:00:57.296Z,98301.00
2022-11-09T09:03:26.248Z,98306.41
2022-11-09T09:05:55.055Z,98299.34
2022-11-09T09:08:25.564Z,98298.31
2022-11-09T09:10:54.263Z,98310.13
2022-11-09T09:13:24.917Z,98308.41
2022-11-09T09:15:53.908Z,98312.81
2022-11-09T09:18:24.218Z,98317.16
2022-11-09T09:20:53.170Z,98312.81
2022-11-09T09:23:22.402Z,98309.25
2022-11-09T09:25:54.086Z,98311.13
2022-11-09T09:28:26.519Z,98309.25
2022-11-09T09:30:55.293Z,98313.81
2022-11-09T09:33:24.166Z,98320.88
2022-11-09T09:35:52.888Z,98317.31
2022-11-09T09:38:22.092Z,98325.38
2022-11-09T09:40:58.403Z,98315.50
2022-11-09T09:43:33.469Z,98318.34
2022-11-09T09:46:03.529Z,98313.81
2022-11-09T09:48:36.838Z,98311.94
2022-11-09T09:51:08.259Z,98317.16
2022-11-09T09:53:39.874Z,98316.31
2022-11-09T09:56:12.680Z,98311.78
2022-11-09T09:58:46.062Z,98307.22
2022-11-09T10:01:16.822Z,98302.69
2022-11-09T10:03:46.348Z,98305.38
2022-11-09T10:06:37.777Z,98305.38
2022-11-09T10:09:14.321Z,98314.31
2022-11-09T10:11:47.687Z,98309.75
2022-11-09T10:14:47.167Z,98300.66
2022-11-09T10:17:20.259Z,98311.41
2022-11-09T10:19:57.326Z,98303.34
2022-11-09T10:22:29.826Z,98303.19
2022-11-09T10:27:53.183Z,98311.41
2022-11-09T10:30:24.391Z,98310.75
2022-11-09T10:32:54.098Z,98307.88
2022-11-09T10:35:25.718Z,98297.78
2022-11-09T10:37:55.160Z,98298.63
2022-11-09T10:40:25.863Z,98299.47
2022-11-09T10:42:57.378Z,98292.22
2022-11-09T10:45:32.860Z,98296.09
2022-11-09T10:48:01.939Z,98295.28
2022-11-09T10:50:33.910Z,98289.06
2022-11-09T10:53:18.137Z,98292.59
2022-11-09T10:55:54.889Z,98281.66
2022-11-09T10:58:33.070Z,98282.50
2022-11-09T11:01:05.563Z,98273.59
2022-11-09T11:03:35.794Z,98277.09
2022-11-09T11:06:05.728Z,98284.16
2022-11-09T11:08:37.403Z,98271.91
2022-11-09T11:11:35.714Z,98279.34
2022-11-09T11:14:17.170Z,98288.03
2022-11-09T11:16:53.071Z,98275.44
2022-11-09T11:19:33.985Z,98275.44
2022-11-09T11:22:19.223Z,98271.91
2022-11-09T11:24:51.539Z,98270.25
2022-11-09T11:27:22.842Z,98276.44
2022-11-09T11:29:55.818Z,98273.59
2022-11-09T11:32:26.474Z,98280.16
2022-11-09T11:35:02.700Z,98279.13
2022-11-09T11:37:40.048Z,98278.31
2022-11-09T11:40:11.595Z,98279.13
2022-11-09T11:43:11.799Z,98277.47
2022-11-09T11:45:43.056Z,98271.28
2022-11-09T11:48:43.358Z,98274.13
2022-11-09T11:51:14.779Z,98283.50
2022-11-09T11:53:54.415Z,98273.75
2022-11-09T11:56:25.911Z,98276.44
2022-11-09T11:59:06.516Z,98278.47
2022-11-09T12:01:51.814Z,98277.47
2022-11-09T12:04:32.641Z,98272.09
2022-11-09T12:07:16.160Z,98270.41
2022-11-09T12:10:10.726Z,98278.31
2022-11-09T12:12:44.336Z,98271.06
2022-11-09T12:15:24.800Z,98272.09
2022-11-09T12:18:00.322Z,98272.09
2022-11-09T12:20:33.533Z,98272.47
2022-11-09T12:23:18.498Z,98262.53
2022-11-09T12:25:50.815Z,98265.03
2022-11-09T12:28:36.001Z,98262.16
2022-11-09T12:31:10.506Z,98271.06
2022-11-09T12:33:44.309Z,98271.06
2022-11-09T12:36:17.229Z,98263.81
2022-11-09T12:38:53.943Z,98264.69
2022-11-09T12:41:23.966Z,98267.38
2022-11-09T12:43:54.845Z,98263.00
2022-11-09T12:46:26.275Z,98257.63
2022-11-09T12:48:55.177Z,98255.97
2022-11-09T12:51:25.327Z,98261.34
2022-11-09T12:53:54.124Z,98263.00
2022-11-09T12:56:25.863Z,98262.16
2022-11-09T12:58:54.689Z,98263.00
2022-11-09T13:01:48.831Z,98259.47
2022-11-09T13:04:18.963Z,98253.28
2022-11-09T13:07:21.019Z,98247.88
2022-11-09T13:09:55.242Z,98248.72
2022-11-09T13:12:36.999Z,98247.88
2022-11-09T13:15:23.601Z,98252.44
2022-11-09T13:17:59.245Z,98248.06
2022-11-09T13:21:00.536Z,98248.88
2022-11-09T13:26:26.430Z,98251.56
2022-11-09T13:29:23.356Z,98259.66
2022-11-09T13:32:28.155Z,98253.44
2022-11-09T13:34:58.072Z,98257.81
2022-11-09T13:37:49.553Z,98260.50
2022-11-09T13:40:42.260Z,98273.09
2022-11-09T13:43:22.732Z,98270.41
2022-11-09T13:45:53.066Z,98279.34
2022-11-09T13:48:34.562Z,98269.41
2022-11-09T13:51:05.286Z,98275.78
2022-11-09T13:53:57.122Z,98271.59
2022-11-09T13:56:30.157Z,98276.44
2022-11-09T13:59:02.041Z,98268.38
2022-11-09T14:01:37.016Z,98276.44
2022-11-09T14:04:07.182Z,98271.06
2022-11-09T14:06:36.051Z,98275.44
2022-11-09T14:09:05.114Z,98280.81
2022-11-09T14:11:46.590Z,98281.66
2022-11-09T14:14:53.124Z,98289.91
2022-11-09T14:17:24.439Z,98289.06
2022-11-09T14:20:00.233Z,98292.59
2022-11-09T14:22:29.058Z,98283.69
2022-11-09T14:24:57.784Z,98278.31
2022-11-09T14:27:27.894Z,98288.22
2022-11-09T14:29:57.598Z,98300.66
2022-11-09T14:32:28.942Z,98300.84
2022-11-09T14:35:24.224Z,98291.91
2022-11-09T14:37:55.229Z,98308.06
2022-11-09T14:40:26.299Z,98304.38
2022-11-09T14:42:58.901Z,98307.22
2022-11-09T14:45:28.090Z,98305.38
2022-11-09T14:47:58.693Z,98301.00
2022-11-09T14:50:28.336Z,98296.66
2022-11-09T14:52:57.428Z,98296.47
2022-11-09T14:55:26.433Z,98301.84
2022-11-09T14:57:57.180Z,98292.28
2022-11-09T15:00:31.284Z,98294.97
2022-11-09T15:03:00.250Z,98296.66
2022-11-09T15:05:31.657Z,98295.63
2022-11-09T15:08:00.869Z,98286.53
2022-11-09T15:10:32.628Z,98284.06
2022-11-09T15:13:04.752Z,98279.50
2022-11-09T15:15:34.440Z,98296.47
2022-11-09T15:18:03.267Z,98289.44
2022-11-09T15:20:33.791Z,98293.78
2022-11-09T15:23:03.292Z,98295.63
2022-11-09T15:25:34.220Z,98303.72
2022-11-09T15:28:20.705Z,98307.44
2022-11-09T15:30:50.582Z,98302.06
2022-11-09T15:33:25.546Z,98304.75
2022-11-09T15:35:55.218Z,98309.25
2022-11-09T15:38:32.066Z,98304.75
2022-11-09T15:41:01.048Z,98300.56
2022-11-09T15:43:32.224Z,98303.25
2022-11-09T15:46:01.280Z,98306.75
2022-11-09T15:48:30.286Z,98308.41
2022-11-09T15:50:59.037Z,98303.88
2022-11-09T15:53:27.881Z,98297.66
2022-11-09T15:55:56.731Z,98296.66
2022-11-09T15:58:25.532Z,98304.06
2022-11-09T16:00:55.719Z,98300.34
2022-11-09T16:03:25.652Z,98303.03
2022-11-09T16:05:54.434Z,98299.53
2022-11-09T16:08:23.832Z,98293.31
2022-11-09T16:10:52.844Z,98283.38
2022-11-09T16:13:21.607Z,98294.16
2022-11-09T16:15:50.382Z,98301.38
2022-11-09T16:18:25.742Z,98296.00
2022-11-09T16:20:55.159Z,98296.84
2022-11-09T16:23:23.916Z,98289.59
2022-11-09T16:25:52.765Z,98293.13
2022-11-09T16:28:22.015Z,98288.59
2022-11-09T16:30:51.215Z,98284.06
2022-11-09T16:33:21.467Z,98287.56
2022-11-09T16:35:50.255Z,98283.84
2022-11-09T16:38:19.610Z,98284.50
2022-11-09T16:40:48.556Z,98297.13
2022-11-09T16:43:17.487Z,98299.81
2022-11-09T16:45:47.507Z,98298.78
2022-11-09T16:48:16.378Z,98307.88
2022-11-09T16:50:47.416Z,98307.88
2022-11-09T16:53:17.075Z,98309.75
2022-11-09T16:55:45.979Z,98310.75
2022-11-09T16:58:14.811Z,98310.75
2022-11-09T17:01:09.607Z,98310.59
2022-11-09T17:03:35.067Z,98308.91
2022-11-09T17:06:05.754Z,98319.69
2022-11-09T17:08:34.717Z,98314.31
2022-11-09T17:11:07.681Z,98320.50
2022-11-09T17:13:36.673Z,98321.34
2022-11-09T17:16:06.717Z,98325.88
2022-11-09T17:18:37.747Z,98316.13
2022-11-09T17:21:10.669Z,98327.75
2022-11-09T17:23:39.737Z,98325.88
2022-11-09T17:26:08.926Z,98330.59
2022-11-09T17:28:42.645Z,98333.47
2022-11-09T17:31:15.637Z,98333.28
2022-11-09T17:33:45.609Z,98327.09
2022-11-09T17:36:25.953Z,98329.56
2022-11-09T17:39:06.872Z,98330.59
2022-11-09T17:41:40.106Z,98333.28
2022-11-09T17:44:11.269Z,98333.28
2022-11-09T17:46:40.111Z,98330.59
2022-11-09T17:49:10.371Z,98334.94
2022-11-09T17:51:40.782Z,98317.97
2022-11-09T17:54:09.595Z,98324.19
2022-11-09T17:56:39.980Z,98325.22
2022-11-09T17:59:08.870Z,98325.22
2022-11-09T18:01:41.584Z,98325.38
2022-11-09T18:04:11.905Z,98317.16
2022-11-09T18:06:42.225Z,98313.94
2022-11-09T18:09:39.559Z,98315.59
2022-11-09T18:12:00.460Z,98313.94
2022-11-09T18:14:29.399Z,98310.59
2022-11-09T18:16:59.642Z,98316.78
2022-11-09T18:19:28.383Z,98306.03
2022-11-09T18:22:02.683Z,98314.09
2022-11-09T18:24:33.029Z,98313.94
2022-11-09T18:27:03.617Z,98310.41
2022-11-09T18:29:32.325Z,98312.06
2022-11-09T18:32:01.287Z,98315.78
2022-11-09T18:34:30.080Z,98314.75
2022-11-09T18:37:00.388Z,98318.28
2022-11-09T18:39:31.143Z,98323.66
2022-11-09T18:42:02.087Z,98321.16
2022-11-09T18:44:33.227Z,98317.81
2022-11-09T18:47:05.325Z,98315.97
2022-11-09T18:49:36.348Z,98313.28
2022-11-09T18:52:07.700Z,98304.53
2022-11-09T18:54:36.660Z,98306.41
2022-11-09T18:57:05.712Z,98300.84
2022-11-09T18:59:40.122Z,98309.75
2022-11-09T19:02:11.626Z,98307.06
2022-11-09T19:04:40.610Z,98301.69
2022-11-09T19:07:10.933Z,98313.44
2022-11-09T19:09:39.847Z,98317.63
2022-11-09T19:12:09.645Z,98319.31
2022-11-09T19:14:41.062Z,98321.16
2022-11-09T19:17:12.350Z,98315.78
2022-11-09T19:19:42.362Z,98330.91
2022-11-09T19:22:16.959Z,98330.91
2022-11-09T19:24:46.047Z,98335.09
2022-11-09T19:27:15.073Z,98340.63
2022-11-09T19:29:43.838Z,98346.69
2022-11-09T19:32:12.888Z,98339.63
2022-11-09T19:34:42.921Z,98337.13
2022-11-09T19:37:13.356Z,98335.44
2022-11-09T19:39:45.318Z,98339.81
2022-11-09T19:42:14.225Z,98336.28
2022-11-09T19:44:44.872Z,98336.13
2022-11-09T19:47:13.649Z,98334.25
2022-11-09T19:49:42.653Z,98343.97
2022-11-09T19:52:12.815Z,98348.34
2022-11-09T19:54:43.366Z,98342.97
2022-11-09T19:57:12.309Z,98326.81
2022-11-09T19:59:41.268Z,98340.25
2022-11-09T20:02:10.683Z,98337.56
2022-11-09T20:04:39.521Z,98334.06
2022-11-09T20:07:08.325Z,98333.22
2022-11-09T20:09:38.523Z,98337.56
2022-11-09T20:12:25.235Z,98337.56
2022-11-09T20:14:54.109Z,98336.75
2022-11-09T20:17:24.098Z,98331.38
2022-11-09T20:19:53.105Z,98333.06
2022-11-09T20:22:22.011Z,98332.19
2022-11-09T20:24:52.192Z,98332.19
2022-11-09T20:27:21.129Z,98341.28
2022-11-09T20:29:49.964Z,98337.78
2022-11-09T20:32:21.441Z,98338.59
2022-11-09T20:34:50.587Z,98347.50
2022-11-09T20:37:19.675Z,98348.53
2022-11-09T20:39:48.451Z,98346.88
2022-11-09T20:42:19.176Z,98358.47
2022-11-09T20:44:48.086Z,98356.59
2022-11-09T20:47:35.480Z,98355.78
2022-11-09T20:50:07.044Z,98354.09
2022-11-09T20:52:35.968Z,98361.16
2022-11-09T20:55:05.070Z,98355.94
2022-11-09T20:57:35.234Z,98358.63
2022-11-09T21:00:04.348Z,98353.25
2022-11-09T21:02:33.452Z,98351.38
2022-11-09T21:05:02.877Z,98354.94
2022-11-09T21:07:31.929Z,98353.44
2022-11-09T21:10:00.777Z,98356.13
2022-11-09T21:12:29.653Z,98351.59
2022-11-09T21:14:59.900Z,98360.50
2022-11-09T21:17:28.658Z,98354.28
2022-11-09T21:19:57.459Z,98357.78
2022-11-09T21:22:46.259Z,98353.25
2022-11-09T21:25:32.845Z,98361.97
2022-11-09T21:28:19.629Z,98362.16
2022-11-09T21:30:50.173Z,98356.59
2022-11-09T21:33:19.073Z,98361.16
2022-11-09T21:35:47.936Z,98363.84
2022-11-09T21:38:16.661Z,98363.84
2022-11-09T21:40:45.481Z,98364.84
2022-11-09T21:43:14.988Z,98363.84
2022-11-09T21:45:44.134Z,98366.53
2022-11-09T21:48:14.312Z,98361.97
2022-11-09T21:50:43.058Z,98365.88
2022-11-09T21:53:11.802Z,98359.47
2022-11-09T21:55:40.578Z,98358.63
2022-11-09T21:58:10.298Z,98365.69
2022-11-09T22:00:39.061Z,98365.69
2022-11-09T22:03:07.887Z,98361.16
2022-11-09T22:05:38.100Z,98358.63
2022-11-09T22:08:07.039Z,98364.84
2022-11-09T22:10:35.906Z,98374.78
2022-11-09T22:13:22.324Z,98372.91
2022-11-09T22:16:09.883Z,98371.09
2022-11-09T22:18:56.494Z,98367.38
2022-11-09T22:21:26.632Z,98364.84
2022-11-09T22:23:55.361Z,98354.09
2022-11-09T22:26:24.116Z,98359.66
2022-11-09T22:28:52.862Z,98363.19
2022-11-09T22:31:21.683Z,98366.69
2022-11-09T22:33:50.643Z,98360.50
2022-11-09T22:36:19.491Z,98362.34
2022-11-09T22:38:49.671Z,98361.53
2022-11-09T22:41:18.430Z,98364.22
2022-11-09T22:43:47.230Z,98370.41
2022-11-09T22:46:17.276Z,98375.97
2022-11-09T22:48:46.390Z,98371.41
2022-11-09T22:51:16.205Z,98381.34
2022-11-09T22:53:44.956Z,98378.66
2022-11-09T22:56:15.210Z,98377.00
2022-11-09T22:58:45.147Z,98380.69
2022-11-09T23:01:15.798Z,98383.19
2022-11-09T23:03:44.730Z,98391.09
2022-11-09T23:06:14.970Z,98394.63
2022-11-09T23:08:44.013Z,98395.47
2022-11-09T23:11:14.872Z,98386.72
2022-11-09T23:13:44.425Z,98398.31
2022-11-09T23:16:13.409Z,98392.94
2022-11-09T23:18:56.613Z,98392.94
2022-11-09T23:21:27.051Z,98393.97
2022-11-09T23:23:57.431Z,98395.81
2022-11-09T23:26:27.155Z,98405.56
2022-11-09T23:28:56.073Z,98402.84
2022-11-09T23:31:25.149Z,98393.97
2022-11-09T23:33:54.511Z,98395.00
2022-11-09T23:36:23.947Z,98397.47
2022-11-09T23:38:52.768Z,98411.97
2022-11-09T23:41:21.678Z,98401.00
2022-11-09T23:43:52.004Z,98404.56
2022-11-09T23:46:20.884Z,98404.56
2022-11-09T23:48:50.082Z,98398.31
2022-11-09T23:51:19.685Z,98407.25
2022-11-09T23:53:48.462Z,98413.63
2022-11-09T23:56:17.428Z,98403.88
2022-11-09T23:58:51.435Z,98409.28
